sensor_id;sensor_type;location;lat;lon;timestamp;P1;durP1;ratioP1;P2;durP2;ratioP2
23567;SDS011;11962;50.838;4.430;2023-05-17T00:01:50;17.65;;;3.65;;
23567;SDS011;11962;50.838;4.430;2023-05-17T00:04:16;10.00;;;3.58;;
23567;SDS011;11962;50.838;4.430;2023-05-17T00:06:42;9.55;;;3.17;;
23567;SDS011;11962;50.838;4.430;2023-05-17T00:09:08;14.75;;;3.63;;
23567;SDS011;11962;50.838;4.430;2023-05-17T00:11:34;9.73;;;2.95;;
23567;SDS011;11962;50.838;4.430;2023-05-17T00:14:00;8.77;;;3.25;;
23567;SDS011;11962;50.838;4.430;2023-05-17T00:16:26;12.98;;;3.42;;
23567;SDS011;11962;50.838;4.430;2023-05-17T00:18:52;9.27;;;3.00;;
23567;SDS011;11962;50.838;4.430;2023-05-17T00:21:17;15.70;;;3.50;;
23567;SDS011;11962;50.838;4.430;2023-05-17T00:23:43;13.60;;;3.65;;
23567;SDS011;11962;50.838;4.430;2023-05-17T00:26:09;14.30;;;3.08;;
23567;SDS011;11962;50.838;4.430;2023-05-17T00:28:35;13.52;;;3.70;;
23567;SDS011;11962;50.838;4.430;2023-05-17T00:31:01;16.65;;;4.00;;
23567;SDS011;11962;50.838;4.430;2023-05-17T00:33:26;10.82;;;3.45;;
23567;SDS011;11962;50.838;4.430;2023-05-17T00:35:52;10.43;;;3.65;;
23567;SDS011;11962;50.838;4.430;2023-05-17T00:38:18;19.55;;;4.07;;
23567;SDS011;11962;50.838;4.430;2023-05-17T00:40:53;12.27;;;3.28;;
23567;SDS011;11962;50.838;4.430;2023-05-17T00:43:19;17.05;;;3.50;;
23567;SDS011;11962;50.838;4.430;2023-05-17T00:45:45;14.93;;;3.95;;
23567;SDS011;11962;50.838;4.430;2023-05-17T00:48:12;12.65;;;3.45;;
23567;SDS011;11962;50.838;4.430;2023-05-17T00:50:39;16.83;;;4.50;;
23567;SDS011;11962;50.838;4.430;2023-05-17T00:53:05;13.75;;;3.42;;
23567;SDS011;11962;50.838;4.430;2023-05-17T00:55:31;14.55;;;3.92;;
23567;SDS011;11962;50.838;4.430;2023-05-17T00:57:58;13.25;;;3.92;;
23567;SDS011;11962;50.838;4.430;2023-05-17T01:00:24;15.45;;;3.85;;
23567;SDS011;11962;50.838;4.430;2023-05-17T01:02:50;20.88;;;4.18;;
23567;SDS011;11962;50.838;4.430;2023-05-17T01:05:16;17.42;;;4.65;;
23567;SDS011;11962;50.838;4.430;2023-05-17T01:07:41;11.95;;;4.47;;
23567;SDS011;11962;50.838;4.430;2023-05-17T01:10:07;16.25;;;5.55;;
23567;SDS011;11962;50.838;4.430;2023-05-17T01:12:40;20.00;;;7.82;;
23567;SDS011;11962;50.838;4.430;2023-05-17T01:15:32;20.13;;;10.10;;
23567;SDS011;11962;50.838;4.430;2023-05-17T01:20:39;30.20;;;16.77;;
23567;SDS011;11962;50.838;4.430;2023-05-17T01:26:15;31.40;;;18.25;;
23567;SDS011;11962;50.838;4.430;2023-05-17T01:28:44;36.90;;;21.55;;
23567;SDS011;11962;50.838;4.430;2023-05-17T01:31:13;37.25;;;21.25;;
23567;SDS011;11962;50.838;4.430;2023-05-17T01:33:39;32.40;;;20.73;;
23567;SDS011;11962;50.838;4.430;2023-05-17T01:36:05;35.55;;;20.88;;
23567;SDS011;11962;50.838;4.430;2023-05-17T01:38:31;32.50;;;20.48;;
23567;SDS011;11962;50.838;4.430;2023-05-17T01:40:57;35.20;;;21.70;;
23567;SDS011;11962;50.838;4.430;2023-05-17T01:43:30;38.15;;;21.67;;
23567;SDS011;11962;50.838;4.430;2023-05-17T01:48:37;35.00;;;19.63;;
23567;SDS011;11962;50.838;4.430;2023-05-17T01:51:08;37.88;;;16.70;;
23567;SDS011;11962;50.838;4.430;2023-05-17T01:53:38;28.02;;;16.25;;
23567;SDS011;11962;50.838;4.430;2023-05-17T01:56:12;31.50;;;14.18;;
23567;SDS011;11962;50.838;4.430;2023-05-17T01:58:44;25.08;;;11.80;;
23567;SDS011;11962;50.838;4.430;2023-05-17T02:01:13;29.55;;;12.07;;
23567;SDS011;11962;50.838;4.430;2023-05-17T02:03:40;28.38;;;10.52;;
23567;SDS011;11962;50.838;4.430;2023-05-17T02:06:06;26.23;;;11.30;;
23567;SDS011;11962;50.838;4.430;2023-05-17T02:08:32;20.90;;;11.23;;
23567;SDS011;11962;50.838;4.430;2023-05-17T02:10:57;18.42;;;9.68;;
23567;SDS011;11962;50.838;4.430;2023-05-17T02:13:23;18.17;;;8.90;;
23567;SDS011;11962;50.838;4.430;2023-05-17T02:15:49;19.23;;;9.48;;
23567;SDS011;11962;50.838;4.430;2023-05-17T02:18:15;23.02;;;8.70;;
23567;SDS011;11962;50.838;4.430;2023-05-17T02:20:41;23.20;;;8.15;;
23567;SDS011;11962;50.838;4.430;2023-05-17T02:23:07;19.88;;;9.02;;
23567;SDS011;11962;50.838;4.430;2023-05-17T02:25:32;16.27;;;8.15;;
23567;SDS011;11962;50.838;4.430;2023-05-17T02:27:58;14.30;;;8.13;;
23567;SDS011;11962;50.838;4.430;2023-05-17T02:30:24;24.35;;;8.48;;
23567;SDS011;11962;50.838;4.430;2023-05-17T02:32:50;20.33;;;8.60;;
23567;SDS011;11962;50.838;4.430;2023-05-17T02:35:16;24.10;;;9.18;;
23567;SDS011;11962;50.838;4.430;2023-05-17T02:37:48;19.27;;;9.48;;
23567;SDS011;11962;50.838;4.430;2023-05-17T02:40:17;24.75;;;10.25;;
23567;SDS011;11962;50.838;4.430;2023-05-17T02:42:42;22.83;;;10.48;;
23567;SDS011;11962;50.838;4.430;2023-05-17T02:45:08;22.83;;;9.93;;
23567;SDS011;11962;50.838;4.430;2023-05-17T02:47:34;19.42;;;8.82;;
23567;SDS011;11962;50.838;4.430;2023-05-17T02:50:03;22.70;;;9.63;;
23567;SDS011;11962;50.838;4.430;2023-05-17T02:52:32;15.68;;;10.10;;
23567;SDS011;11962;50.838;4.430;2023-05-17T02:54:58;22.90;;;10.55;;
23567;SDS011;11962;50.838;4.430;2023-05-17T02:57:23;22.08;;;10.82;;
23567;SDS011;11962;50.838;4.430;2023-05-17T02:59:49;22.13;;;10.63;;
23567;SDS011;11962;50.838;4.430;2023-05-17T03:02:15;20.98;;;10.05;;
23567;SDS011;11962;50.838;4.430;2023-05-17T03:04:40;20.65;;;9.98;;
23567;SDS011;11962;50.838;4.430;2023-05-17T03:07:06;22.30;;;10.35;;
23567;SDS011;11962;50.838;4.430;2023-05-17T03:09:32;24.95;;;9.70;;
23567;SDS011;11962;50.838;4.430;2023-05-17T03:11:58;18.55;;;9.05;;
23567;SDS011;11962;50.838;4.430;2023-05-17T03:14:25;19.50;;;8.70;;
23567;SDS011;11962;50.838;4.430;2023-05-17T03:16:50;20.38;;;9.07;;
23567;SDS011;11962;50.838;4.430;2023-05-17T03:19:16;17.20;;;8.95;;
23567;SDS011;11962;50.838;4.430;2023-05-17T03:21:42;17.02;;;9.18;;
23567;SDS011;11962;50.838;4.430;2023-05-17T03:24:07;23.70;;;8.43;;
23567;SDS011;11962;50.838;4.430;2023-05-17T03:26:33;22.05;;;8.52;;
23567;SDS011;11962;50.838;4.430;2023-05-17T03:28:59;17.13;;;9.05;;
23567;SDS011;11962;50.838;4.430;2023-05-17T03:31:25;17.88;;;9.05;;
23567;SDS011;11962;50.838;4.430;2023-05-17T03:33:51;21.15;;;8.70;;
23567;SDS011;11962;50.838;4.430;2023-05-17T03:36:17;18.98;;;8.32;;
23567;SDS011;11962;50.838;4.430;2023-05-17T03:38:42;16.55;;;8.63;;
23567;SDS011;11962;50.838;4.430;2023-05-17T03:41:08;18.92;;;8.98;;
23567;SDS011;11962;50.838;4.430;2023-05-17T03:43:34;15.57;;;8.45;;
23567;SDS011;11962;50.838;4.430;2023-05-17T03:46:00;18.85;;;8.90;;
23567;SDS011;11962;50.838;4.430;2023-05-17T03:48:26;23.92;;;9.43;;
23567;SDS011;11962;50.838;4.430;2023-05-17T03:50:51;17.38;;;8.55;;
23567;SDS011;11962;50.838;4.430;2023-05-17T03:53:17;18.70;;;8.35;;
23567;SDS011;11962;50.838;4.430;2023-05-17T03:55:43;21.63;;;8.90;;
23567;SDS011;11962;50.838;4.430;2023-05-17T03:58:09;20.55;;;7.88;;
23567;SDS011;11962;50.838;4.430;2023-05-17T04:00:34;19.90;;;8.40;;
23567;SDS011;11962;50.838;4.430;2023-05-17T04:03:00;18.10;;;8.45;;
23567;SDS011;11962;50.838;4.430;2023-05-17T04:05:27;15.82;;;7.95;;
23567;SDS011;11962;50.838;4.430;2023-05-17T04:07:53;17.27;;;8.02;;
23567;SDS011;11962;50.838;4.430;2023-05-17T04:10:19;16.70;;;7.32;;
23567;SDS011;11962;50.838;4.430;2023-05-17T04:12:44;16.15;;;6.93;;
23567;SDS011;11962;50.838;4.430;2023-05-17T04:15:10;17.55;;;6.70;;
23567;SDS011;11962;50.838;4.430;2023-05-17T04:17:36;17.23;;;7.53;;
23567;SDS011;11962;50.838;4.430;2023-05-17T04:20:02;18.70;;;7.85;;
23567;SDS011;11962;50.838;4.430;2023-05-17T04:22:30;11.20;;;6.65;;
23567;SDS011;11962;50.838;4.430;2023-05-17T04:24:57;20.70;;;7.68;;
23567;SDS011;11962;50.838;4.430;2023-05-17T04:27:22;16.90;;;7.78;;
23567;SDS011;11962;50.838;4.430;2023-05-17T04:29:48;20.63;;;7.18;;
23567;SDS011;11962;50.838;4.430;2023-05-17T04:32:14;21.73;;;7.82;;
23567;SDS011;11962;50.838;4.430;2023-05-17T04:34:40;18.80;;;7.18;;
23567;SDS011;11962;50.838;4.430;2023-05-17T04:37:07;16.05;;;7.40;;
23567;SDS011;11962;50.838;4.430;2023-05-17T04:39:32;13.85;;;6.47;;
23567;SDS011;11962;50.838;4.430;2023-05-17T04:41:58;19.45;;;7.65;;
23567;SDS011;11962;50.838;4.430;2023-05-17T04:44:24;21.17;;;6.90;;
23567;SDS011;11962;50.838;4.430;2023-05-17T04:46:51;18.70;;;7.55;;
23567;SDS011;11962;50.838;4.430;2023-05-17T04:49:17;17.45;;;6.72;;
23567;SDS011;11962;50.838;4.430;2023-05-17T04:51:43;16.30;;;7.15;;
23567;SDS011;11962;50.838;4.430;2023-05-17T04:54:09;16.17;;;6.10;;
23567;SDS011;11962;50.838;4.430;2023-05-17T04:56:34;17.15;;;6.85;;
23567;SDS011;11962;50.838;4.430;2023-05-17T04:59:01;15.45;;;6.13;;
23567;SDS011;11962;50.838;4.430;2023-05-17T05:01:27;12.93;;;7.45;;
23567;SDS011;11962;50.838;4.430;2023-05-17T05:03:55;14.15;;;6.45;;
23567;SDS011;11962;50.838;4.430;2023-05-17T05:06:21;17.52;;;7.07;;
23567;SDS011;11962;50.838;4.430;2023-05-17T05:08:47;18.30;;;6.40;;
23567;SDS011;11962;50.838;4.430;2023-05-17T05:11:13;16.63;;;6.90;;
23567;SDS011;11962;50.838;4.430;2023-05-17T05:13:39;17.25;;;7.00;;
23567;SDS011;11962;50.838;4.430;2023-05-17T05:16:06;19.30;;;6.25;;
23567;SDS011;11962;50.838;4.430;2023-05-17T05:18:32;21.23;;;6.60;;
23567;SDS011;11962;50.838;4.430;2023-05-17T05:20:58;20.98;;;6.05;;
23567;SDS011;11962;50.838;4.430;2023-05-17T05:23:24;18.25;;;6.22;;
23567;SDS011;11962;50.838;4.430;2023-05-17T05:25:50;17.45;;;6.07;;
23567;SDS011;11962;50.838;4.430;2023-05-17T05:28:15;13.00;;;5.47;;
23567;SDS011;11962;50.838;4.430;2023-05-17T05:30:41;27.88;;;6.82;;
23567;SDS011;11962;50.838;4.430;2023-05-17T05:33:07;15.07;;;5.90;;
23567;SDS011;11962;50.838;4.430;2023-05-17T05:35:33;15.02;;;5.40;;
23567;SDS011;11962;50.838;4.430;2023-05-17T05:37:59;15.80;;;6.13;;
23567;SDS011;11962;50.838;4.430;2023-05-17T05:40:25;16.48;;;5.93;;
23567;SDS011;11962;50.838;4.430;2023-05-17T05:42:50;18.90;;;5.60;;
23567;SDS011;11962;50.838;4.430;2023-05-17T05:45:16;13.10;;;4.93;;
23567;SDS011;11962;50.838;4.430;2023-05-17T05:47:42;17.45;;;5.85;;
23567;SDS011;11962;50.838;4.430;2023-05-17T05:50:08;19.33;;;6.10;;
23567;SDS011;11962;50.838;4.430;2023-05-17T05:52:35;16.98;;;5.65;;
23567;SDS011;11962;50.838;4.430;2023-05-17T05:55:01;16.38;;;5.68;;
23567;SDS011;11962;50.838;4.430;2023-05-17T05:57:26;21.02;;;5.60;;
23567;SDS011;11962;50.838;4.430;2023-05-17T05:59:52;13.27;;;5.07;;
23567;SDS011;11962;50.838;4.430;2023-05-17T06:02:18;18.88;;;5.68;;
23567;SDS011;11962;50.838;4.430;2023-05-17T06:04:45;17.80;;;5.78;;
23567;SDS011;11962;50.838;4.430;2023-05-17T06:07:12;19.05;;;5.70;;
23567;SDS011;11962;50.838;4.430;2023-05-17T06:09:38;17.58;;;5.07;;
23567;SDS011;11962;50.838;4.430;2023-05-17T06:12:04;18.90;;;5.07;;
23567;SDS011;11962;50.838;4.430;2023-05-17T06:14:30;16.25;;;5.20;;
23567;SDS011;11962;50.838;4.430;2023-05-17T06:16:56;16.70;;;4.95;;
23567;SDS011;11962;50.838;4.430;2023-05-17T06:19:22;18.52;;;5.10;;
23567;SDS011;11962;50.838;4.430;2023-05-17T06:21:47;15.80;;;4.97;;
23567;SDS011;11962;50.838;4.430;2023-05-17T06:24:14;15.25;;;5.10;;
23567;SDS011;11962;50.838;4.430;2023-05-17T06:26:41;19.58;;;4.78;;
23567;SDS011;11962;50.838;4.430;2023-05-17T06:29:08;15.02;;;4.95;;
23567;SDS011;11962;50.838;4.430;2023-05-17T06:31:34;19.42;;;5.03;;
23567;SDS011;11962;50.838;4.430;2023-05-17T06:34:00;19.08;;;4.78;;
23567;SDS011;11962;50.838;4.430;2023-05-17T06:36:25;18.52;;;5.13;;
23567;SDS011;11962;50.838;4.430;2023-05-17T06:38:51;14.80;;;4.97;;
23567;SDS011;11962;50.838;4.430;2023-05-17T06:41:17;17.33;;;5.45;;
23567;SDS011;11962;50.838;4.430;2023-05-17T06:43:43;21.20;;;5.38;;
23567;SDS011;11962;50.838;4.430;2023-05-17T06:46:09;16.92;;;5.10;;
23567;SDS011;11962;50.838;4.430;2023-05-17T06:48:35;14.30;;;4.50;;
23567;SDS011;11962;50.838;4.430;2023-05-17T06:51:01;15.30;;;5.28;;
23567;SDS011;11962;50.838;4.430;2023-05-17T06:53:27;15.30;;;4.80;;
23567;SDS011;11962;50.838;4.430;2023-05-17T06:55:53;21.13;;;5.30;;
23567;SDS011;11962;50.838;4.430;2023-05-17T06:58:18;19.25;;;4.75;;
23567;SDS011;11962;50.838;4.430;2023-05-17T07:00:44;16.35;;;5.20;;
23567;SDS011;11962;50.838;4.430;2023-05-17T07:03:10;21.67;;;5.60;;
23567;SDS011;11962;50.838;4.430;2023-05-17T07:05:36;20.45;;;5.05;;
23567;SDS011;11962;50.838;4.430;2023-05-17T07:08:02;15.38;;;4.97;;
23567;SDS011;11962;50.838;4.430;2023-05-17T07:10:27;12.30;;;4.22;;
23567;SDS011;11962;50.838;4.430;2023-05-17T07:12:53;12.52;;;4.65;;
23567;SDS011;11962;50.838;4.430;2023-05-17T07:15:19;17.15;;;4.10;;
23567;SDS011;11962;50.838;4.430;2023-05-17T07:17:45;11.00;;;4.45;;
23567;SDS011;11962;50.838;4.430;2023-05-17T07:20:11;12.57;;;4.43;;
23567;SDS011;11962;50.838;4.430;2023-05-17T07:22:37;11.20;;;4.20;;
23567;SDS011;11962;50.838;4.430;2023-05-17T07:25:03;10.88;;;4.30;;
23567;SDS011;11962;50.838;4.430;2023-05-17T07:27:30;13.05;;;4.05;;
23567;SDS011;11962;50.838;4.430;2023-05-17T07:29:56;13.65;;;4.43;;
23567;SDS011;11962;50.838;4.430;2023-05-17T07:32:22;14.15;;;4.30;;
23567;SDS011;11962;50.838;4.430;2023-05-17T07:34:47;9.48;;;3.72;;
23567;SDS011;11962;50.838;4.430;2023-05-17T07:37:13;12.07;;;4.38;;
23567;SDS011;11962;50.838;4.430;2023-05-17T07:39:39;16.58;;;4.30;;
23567;SDS011;11962;50.838;4.430;2023-05-17T07:42:05;12.60;;;4.38;;
23567;SDS011;11962;50.838;4.430;2023-05-17T07:44:31;13.00;;;4.40;;
23567;SDS011;11962;50.838;4.430;2023-05-17T07:46:57;13.30;;;5.07;;
23567;SDS011;11962;50.838;4.430;2023-05-17T07:49:22;11.82;;;4.45;;
23567;SDS011;11962;50.838;4.430;2023-05-17T07:51:48;12.88;;;4.72;;
23567;SDS011;11962;50.838;4.430;2023-05-17T07:54:21;12.10;;;4.60;;
23567;SDS011;11962;50.838;4.430;2023-05-17T07:56:48;17.15;;;5.00;;
23567;SDS011;11962;50.838;4.430;2023-05-17T07:59:14;16.77;;;4.65;;
23567;SDS011;11962;50.838;4.430;2023-05-17T08:01:40;14.90;;;4.65;;
23567;SDS011;11962;50.838;4.430;2023-05-17T08:04:06;13.80;;;4.60;;
23567;SDS011;11962;50.838;4.430;2023-05-17T08:06:31;15.23;;;5.53;;
23567;SDS011;11962;50.838;4.430;2023-05-17T08:08:57;13.85;;;5.05;;
23567;SDS011;11962;50.838;4.430;2023-05-17T08:11:23;13.18;;;5.07;;
23567;SDS011;11962;50.838;4.430;2023-05-17T08:13:49;14.82;;;5.38;;
23567;SDS011;11962;50.838;4.430;2023-05-17T08:16:15;11.95;;;4.82;;
23567;SDS011;11962;50.838;4.430;2023-05-17T08:18:41;14.25;;;4.72;;
23567;SDS011;11962;50.838;4.430;2023-05-17T08:21:07;21.80;;;4.88;;
23567;SDS011;11962;50.838;4.430;2023-05-17T08:23:32;7.85;;;4.15;;
23567;SDS011;11962;50.838;4.430;2023-05-17T08:25:58;14.05;;;4.38;;
23567;SDS011;11962;50.838;4.430;2023-05-17T08:28:24;11.20;;;3.90;;
23567;SDS011;11962;50.838;4.430;2023-05-17T08:30:49;12.18;;;4.43;;
23567;SDS011;11962;50.838;4.430;2023-05-17T08:33:16;13.43;;;4.20;;
23567;SDS011;11962;50.838;4.430;2023-05-17T08:35:42;14.70;;;4.45;;
23567;SDS011;11962;50.838;4.430;2023-05-17T08:38:07;12.38;;;4.55;;
23567;SDS011;11962;50.838;4.430;2023-05-17T08:40:33;12.55;;;4.22;;
23567;SDS011;11962;50.838;4.430;2023-05-17T08:42:59;13.73;;;4.53;;
23567;SDS011;11962;50.838;4.430;2023-05-17T08:45:26;9.13;;;4.57;;
23567;SDS011;11962;50.838;4.430;2023-05-17T08:47:53;12.95;;;4.63;;
23567;SDS011;11962;50.838;4.430;2023-05-17T08:50:19;15.90;;;4.32;;
23567;SDS011;11962;50.838;4.430;2023-05-17T08:52:45;15.25;;;4.47;;
23567;SDS011;11962;50.838;4.430;2023-05-17T08:55:11;13.60;;;3.83;;
23567;SDS011;11962;50.838;4.430;2023-05-17T08:57:40;11.70;;;3.95;;
23567;SDS011;11962;50.838;4.430;2023-05-17T09:00:07;11.73;;;3.40;;
23567;SDS011;11962;50.838;4.430;2023-05-17T09:02:37;10.90;;;2.80;;
23567;SDS011;11962;50.838;4.430;2023-05-17T09:05:06;7.47;;;3.20;;
23567;SDS011;11962;50.838;4.430;2023-05-17T09:07:33;10.30;;;3.20;;
23567;SDS011;11962;50.838;4.430;2023-05-17T09:09:59;8.50;;;3.25;;
23567;SDS011;11962;50.838;4.430;2023-05-17T09:12:30;14.15;;;3.00;;
23567;SDS011;11962;50.838;4.430;2023-05-17T09:15:15;8.98;;;3.33;;
23567;SDS011;11962;50.838;4.430;2023-05-17T09:17:50;9.32;;;2.88;;
23567;SDS011;11962;50.838;4.430;2023-05-17T09:20:23;13.40;;;3.38;;
23567;SDS011;11962;50.838;4.430;2023-05-17T09:25:23;10.38;;;3.38;;
23567;SDS011;11962;50.838;4.430;2023-05-17T09:27:53;13.15;;;3.45;;
23567;SDS011;11962;50.838;4.430;2023-05-17T09:30:27;14.80;;;2.75;;
23567;SDS011;11962;50.838;4.430;2023-05-17T09:32:54;8.35;;;2.65;;
23567;SDS011;11962;50.838;4.430;2023-05-17T09:35:30;9.85;;;2.60;;
23567;SDS011;11962;50.838;4.430;2023-05-17T09:38:02;8.13;;;2.58;;
23567;SDS011;11962;50.838;4.430;2023-05-17T09:40:36;7.85;;;2.78;;
23567;SDS011;11962;50.838;4.430;2023-05-17T09:43:06;10.75;;;2.83;;
23567;SDS011;11962;50.838;4.430;2023-05-17T09:45:33;8.48;;;2.67;;
23567;SDS011;11962;50.838;4.430;2023-05-17T09:48:13;9.73;;;2.42;;
23567;SDS011;11962;50.838;4.430;2023-05-17T09:50:46;15.52;;;3.35;;
23567;SDS011;11962;50.838;4.430;2023-05-17T09:53:23;11.57;;;2.75;;
23567;SDS011;11962;50.838;4.430;2023-05-17T09:55:59;7.85;;;2.42;;
23567;SDS011;11962;50.838;4.430;2023-05-17T09:58:27;7.53;;;2.08;;
23567;SDS011;11962;50.838;4.430;2023-05-17T10:01:02;9.73;;;2.88;;
23567;SDS011;11962;50.838;4.430;2023-05-17T10:03:33;13.27;;;2.63;;
23567;SDS011;11962;50.838;4.430;2023-05-17T10:08:29;7.55;;;1.88;;
23567;SDS011;11962;50.838;4.430;2023-05-17T10:11:09;33.75;;;3.50;;
23567;SDS011;11962;50.838;4.430;2023-05-17T10:13:51;8.02;;;1.65;;
23567;SDS011;11962;50.838;4.430;2023-05-17T10:16:23;7.82;;;2.13;;
23567;SDS011;11962;50.838;4.430;2023-05-17T10:18:50;10.77;;;2.40;;
23567;SDS011;11962;50.838;4.430;2023-05-17T10:21:25;4.32;;;1.70;;
23567;SDS011;11962;50.838;4.430;2023-05-17T10:24:00;9.48;;;2.00;;
23567;SDS011;11962;50.838;4.430;2023-05-17T10:26:27;8.23;;;2.05;;
23567;SDS011;11962;50.838;4.430;2023-05-17T10:29:00;20.45;;;2.67;;
23567;SDS011;11962;50.838;4.430;2023-05-17T10:31:31;5.90;;;1.95;;
23567;SDS011;11962;50.838;4.430;2023-05-17T10:33:58;13.45;;;2.55;;
23567;SDS011;11962;50.838;4.430;2023-05-17T10:38:50;6.65;;;2.53;;
23567;SDS011;11962;50.838;4.430;2023-05-17T10:41:17;5.57;;;2.38;;
23567;SDS011;11962;50.838;4.430;2023-05-17T10:43:46;8.15;;;2.13;;
23567;SDS011;11962;50.838;4.430;2023-05-17T10:46:15;13.75;;;2.53;;
23567;SDS011;11962;50.838;4.430;2023-05-17T10:48:46;5.95;;;2.30;;
23567;SDS011;11962;50.838;4.430;2023-05-17T10:51:14;10.82;;;2.60;;
23567;SDS011;11962;50.838;4.430;2023-05-17T10:56:38;10.60;;;2.30;;
23567;SDS011;11962;50.838;4.430;2023-05-17T10:59:21;13.90;;;2.47;;
23567;SDS011;11962;50.838;4.430;2023-05-17T11:12:10;7.75;;;1.85;;
23567;SDS011;11962;50.838;4.430;2023-05-17T11:17:33;14.23;;;2.60;;
23567;SDS011;11962;50.838;4.430;2023-05-17T11:22:56;8.95;;;2.13;;
23567;SDS011;11962;50.838;4.430;2023-05-17T11:25:30;6.18;;;2.47;;
23567;SDS011;11962;50.838;4.430;2023-05-17T11:28:07;13.93;;;2.28;;
23567;SDS011;11962;50.838;4.430;2023-05-17T11:30:41;15.40;;;2.78;;
23567;SDS011;11962;50.838;4.430;2023-05-17T11:33:14;16.40;;;3.67;;
23567;SDS011;11962;50.838;4.430;2023-05-17T11:35:41;20.52;;;2.60;;
23567;SDS011;11962;50.838;4.430;2023-05-17T11:38:12;9.90;;;2.28;;
23567;SDS011;11962;50.838;4.430;2023-05-17T11:40:39;12.95;;;2.40;;
23567;SDS011;11962;50.838;4.430;2023-05-17T11:43:12;14.02;;;2.97;;
23567;SDS011;11962;50.838;4.430;2023-05-17T11:45:43;15.93;;;2.47;;
23567;SDS011;11962;50.838;4.430;2023-05-17T11:48:13;13.05;;;2.78;;
23567;SDS011;11962;50.838;4.430;2023-05-17T11:50:40;8.23;;;1.92;;
23567;SDS011;11962;50.838;4.430;2023-05-17T11:53:07;10.52;;;2.03;;
23567;SDS011;11962;50.838;4.430;2023-05-17T11:55:43;6.37;;;2.10;;
23567;SDS011;11962;50.838;4.430;2023-05-17T11:58:13;7.38;;;2.03;;
23567;SDS011;11962;50.838;4.430;2023-05-17T12:00:41;16.55;;;2.78;;
23567;SDS011;11962;50.838;4.430;2023-05-17T12:03:16;9.68;;;2.08;;
23567;SDS011;11962;50.838;4.430;2023-05-17T12:05:44;9.30;;;2.17;;
23567;SDS011;11962;50.838;4.430;2023-05-17T12:08:11;7.30;;;2.08;;
23567;SDS011;11962;50.838;4.430;2023-05-17T12:10:42;10.15;;;2.13;;
23567;SDS011;11962;50.838;4.430;2023-05-17T12:13:13;6.72;;;2.13;;
23567;SDS011;11962;50.838;4.430;2023-05-17T12:15:38;8.93;;;1.63;;
23567;SDS011;11962;50.838;4.430;2023-05-17T12:18:08;6.47;;;1.63;;
23567;SDS011;11962;50.838;4.430;2023-05-17T12:20:34;13.23;;;1.75;;
23567;SDS011;11962;50.838;4.430;2023-05-17T12:23:02;8.60;;;1.77;;
23567;SDS011;11962;50.838;4.430;2023-05-17T12:25:27;8.30;;;2.10;;
23567;SDS011;11962;50.838;4.430;2023-05-17T12:30:50;7.57;;;1.50;;
23567;SDS011;11962;50.838;4.430;2023-05-17T12:33:17;6.85;;;1.85;;
23567;SDS011;11962;50.838;4.430;2023-05-17T12:35:43;10.68;;;1.98;;
23567;SDS011;11962;50.838;4.430;2023-05-17T12:38:09;9.98;;;1.50;;
23567;SDS011;11962;50.838;4.430;2023-05-17T12:40:36;15.40;;;2.45;;
23567;SDS011;11962;50.838;4.430;2023-05-17T12:43:04;8.80;;;1.40;;
23567;SDS011;11962;50.838;4.430;2023-05-17T12:45:30;9.40;;;1.52;;
23567;SDS011;11962;50.838;4.430;2023-05-17T12:47:56;4.50;;;1.63;;
23567;SDS011;11962;50.838;4.430;2023-05-17T12:52:56;12.32;;;2.13;;
23567;SDS011;11962;50.838;4.430;2023-05-17T12:55:22;5.13;;;1.40;;
23567;SDS011;11962;50.838;4.430;2023-05-17T12:57:52;5.47;;;1.50;;
23567;SDS011;11962;50.838;4.430;2023-05-17T13:00:19;7.10;;;1.90;;
23567;SDS011;11962;50.838;4.430;2023-05-17T13:02:45;11.75;;;1.88;;
23567;SDS011;11962;50.838;4.430;2023-05-17T13:05:18;8.43;;;1.40;;
23567;SDS011;11962;50.838;4.430;2023-05-17T13:07:47;9.23;;;1.85;;
23567;SDS011;11962;50.838;4.430;2023-05-17T13:10:22;6.68;;;1.60;;
23567;SDS011;11962;50.838;4.430;2023-05-17T13:12:58;6.10;;;1.70;;
23567;SDS011;11962;50.838;4.430;2023-05-17T13:15:31;7.20;;;1.90;;
23567;SDS011;11962;50.838;4.430;2023-05-17T13:17:58;8.07;;;1.83;;
23567;SDS011;11962;50.838;4.430;2023-05-17T13:20:27;9.65;;;1.90;;
23567;SDS011;11962;50.838;4.430;2023-05-17T13:22:53;7.40;;;1.48;;
23567;SDS011;11962;50.838;4.430;2023-05-17T13:25:19;4.85;;;1.67;;
23567;SDS011;11962;50.838;4.430;2023-05-17T13:27:45;6.88;;;1.70;;
23567;SDS011;11962;50.838;4.430;2023-05-17T13:30:13;5.47;;;1.70;;
23567;SDS011;11962;50.838;4.430;2023-05-17T13:32:40;19.50;;;2.10;;
23567;SDS011;11962;50.838;4.430;2023-05-17T13:35:06;8.45;;;1.50;;
23567;SDS011;11962;50.838;4.430;2023-05-17T13:37:33;9.93;;;1.95;;
23567;SDS011;11962;50.838;4.430;2023-05-17T13:40:00;30.67;;;3.78;;
23567;SDS011;11962;50.838;4.430;2023-05-17T13:42:26;7.75;;;1.60;;
23567;SDS011;11962;50.838;4.430;2023-05-17T13:44:53;7.07;;;1.60;;
23567;SDS011;11962;50.838;4.430;2023-05-17T13:47:18;5.55;;;1.92;;
23567;SDS011;11962;50.838;4.430;2023-05-17T13:49:44;5.65;;;1.45;;
23567;SDS011;11962;50.838;4.430;2023-05-17T13:52:10;4.30;;;1.60;;
23567;SDS011;11962;50.838;4.430;2023-05-17T13:54:37;6.60;;;1.48;;
23567;SDS011;11962;50.838;4.430;2023-05-17T13:57:04;9.05;;;1.88;;
23567;SDS011;11962;50.838;4.430;2023-05-17T13:59:31;7.60;;;1.58;;
23567;SDS011;11962;50.838;4.430;2023-05-17T14:01:57;5.07;;;1.52;;
23567;SDS011;11962;50.838;4.430;2023-05-17T14:04:23;6.72;;;1.65;;
23567;SDS011;11962;50.838;4.430;2023-05-17T14:06:49;10.93;;;1.95;;
23567;SDS011;11962;50.838;4.430;2023-05-17T14:09:15;4.65;;;1.35;;
23567;SDS011;11962;50.838;4.430;2023-05-17T14:11:41;6.65;;;1.75;;
23567;SDS011;11962;50.838;4.430;2023-05-17T14:14:07;7.78;;;1.73;;
23567;SDS011;11962;50.838;4.430;2023-05-17T14:16:32;18.55;;;2.10;;
23567;SDS011;11962;50.838;4.430;2023-05-17T14:18:59;5.22;;;1.42;;
23567;SDS011;11962;50.838;4.430;2023-05-17T14:21:25;6.85;;;2.03;;
23567;SDS011;11962;50.838;4.430;2023-05-17T14:23:50;6.28;;;1.98;;
23567;SDS011;11962;50.838;4.430;2023-05-17T14:26:16;7.53;;;1.73;;
23567;SDS011;11962;50.838;4.430;2023-05-17T14:28:42;5.82;;;1.63;;
23567;SDS011;11962;50.838;4.430;2023-05-17T14:31:08;9.70;;;1.67;;
23567;SDS011;11962;50.838;4.430;2023-05-17T14:33:34;7.68;;;2.00;;
23567;SDS011;11962;50.838;4.430;2023-05-17T14:36:00;7.95;;;1.55;;
23567;SDS011;11962;50.838;4.430;2023-05-17T14:38:27;7.13;;;2.00;;
23567;SDS011;11962;50.838;4.430;2023-05-17T14:40:53;8.40;;;1.77;;
23567;SDS011;11962;50.838;4.430;2023-05-17T14:43:19;7.70;;;2.00;;
23567;SDS011;11962;50.838;4.430;2023-05-17T14:45:45;8.23;;;1.83;;
23567;SDS011;11962;50.838;4.430;2023-05-17T14:48:10;7.95;;;1.85;;
23567;SDS011;11962;50.838;4.430;2023-05-17T14:50:36;8.32;;;2.05;;
23567;SDS011;11962;50.838;4.430;2023-05-17T14:53:02;11.02;;;1.77;;
23567;SDS011;11962;50.838;4.430;2023-05-17T14:55:27;7.95;;;1.75;;
23567;SDS011;11962;50.838;4.430;2023-05-17T14:57:54;8.30;;;1.80;;
23567;SDS011;11962;50.838;4.430;2023-05-17T15:00:22;7.05;;;1.60;;
23567;SDS011;11962;50.838;4.430;2023-05-17T15:02:48;14.63;;;1.95;;
23567;SDS011;11962;50.838;4.430;2023-05-17T15:05:15;11.52;;;1.90;;
23567;SDS011;11962;50.838;4.430;2023-05-17T15:07:41;3.88;;;1.40;;
23567;SDS011;11962;50.838;4.430;2023-05-17T15:10:07;7.50;;;1.70;;
23567;SDS011;11962;50.838;4.430;2023-05-17T15:12:35;5.72;;;2.00;;
23567;SDS011;11962;50.838;4.430;2023-05-17T15:15:01;5.55;;;1.65;;
23567;SDS011;11962;50.838;4.430;2023-05-17T15:17:27;6.80;;;1.95;;
23567;SDS011;11962;50.838;4.430;2023-05-17T15:19:53;5.85;;;1.88;;